Time;durP1;ratioP1;P1;durP2;ratioP2;P2;SDS_P1;SDS_P2;PMS_P1;PMS_P2;Temp;Humidity;BMP_temperature;BMP_pressure;BME280_temperature;BME280_humidity;BME280_pressure;Samples;Min_cycle;Max_cycle;Signal;HPM_P1;HPM_P2
2021/01/04 00:00:45;;;;;;;1.70;0.20;;;3.40;99.90;;;;;;5102136;28;20515;-59
2021/01/04 00:03:47;;;;;;;1.70;0.20;;;3.40;99.90;;;;;;5092009;28;20203;-57
2021/01/04 00:06:47;;;;;;;1.70;0.20;;;3.40;99.90;;;;;;5091304;28;20190;-59
2021/01/04 00:09:24;;;;;;;1.73;0.20;;;3.40;99.90;;;;;;5094671;28;20678;-57
2021/01/04 00:12:13;;;;;;;1.70;0.20;;;3.40;99.90;;;;;;5106315;28;20278;-59
2021/01/04 00:14:51;;;;;;;1.77;0.20;;;3.30;99.90;;;;;;5096924;28;20184;-59
2021/01/04 00:17:37;;;;;;;1.73;0.20;;;3.30;99.90;;;;;;5087684;28;20187;-58
2021/01/04 00:20:15;;;;;;;1.70;0.20;;;3.30;99.90;;;;;;5102409;28;20243;-58
2021/01/04 00:23:16;;;;;;;1.90;0.50;;;3.40;99.90;;;;;;5098765;28;20708;-58
2021/01/04 00:26:07;;;;;;;1.70;0.20;;;3.30;99.90;;;;;;5092080;28;20191;-58
2021/01/04 00:28:36;;;;;;;1.70;0.20;;;3.30;99.90;;;;;;5087806;28;20200;-60
2021/01/04 00:31:04;;;;;;;2.08;1.02;;;3.20;99.90;;;;;;5108859;28;20200;-58
2021/01/04 00:33:41;;;;;;;1.70;0.20;;;3.20;99.90;;;;;;5092392;28;20245;-58
2021/01/04 00:36:45;;;;;;;1.70;0.20;;;3.10;99.90;;;;;;5106093;28;20384;-59
2021/01/04 00:39:38;;;;;;;1.70;0.20;;;3.10;99.90;;;;;;5089300;28;20186;-58
2021/01/04 00:42:13;;;;;;;1.70;0.20;;;3.10;99.90;;;;;;5093412;28;20231;-58
2021/01/04 00:44:50;;;;;;;1.70;0.20;;;3.10;99.90;;;;;;5102194;28;20183;-58
2021/01/04 00:47:29;;;;;;;2.20;1.48;;;3.10;99.90;;;;;;5099841;28;20179;-59
2021/01/04 00:50:07;;;;;;;1.73;0.20;;;3.10;99.90;;;;;;5090864;28;20222;-57
2021/01/04 00:52:49;;;;;;;1.80;0.40;;;3.00;99.90;;;;;;5099944;28;20249;-58
2021/01/04 00:55:18;;;;;;;1.73;0.20;;;2.90;99.90;;;;;;5091046;28;20266;-58
2021/01/04 00:58:18;;;;;;;1.70;0.20;;;3.00;99.90;;;;;;5104574;28;20183;-58
2021/01/04 01:00:54;;;;;;;2.75;1.10;;;3.00;99.90;;;;;;5109661;28;20233;-58
2021/01/04 01:03:46;;;;;;;1.73;0.20;;;3.00;99.90;;;;;;5098141;28;20207;-58
2021/01/04 01:06:37;;;;;;;1.73;0.20;;;2.90;99.90;;;;;;5086203;28;20730;-58
2021/01/04 01:09:04;;;;;;;3.63;1.70;;;2.90;99.90;;;;;;5055693;28;20192;-60
2021/01/04 01:11:51;;;;;;;2.38;1.55;;;3.00;99.90;;;;;;5088968;28;20674;-58
2021/01/04 01:14:27;;;;;;;1.95;0.82;;;3.00;99.90;;;;;;5090729;28;20184;-59
2021/01/04 01:17:10;;;;;;;2.78;2.38;;;3.00;99.90;;;;;;5098567;28;20195;-58
2021/01/04 01:19:50;;;;;;;2.38;1.30;;;3.10;99.90;;;;;;5105564;28;20260;-58
2021/01/04 01:22:26;;;;;;;1.90;0.52;;;3.10;99.90;;;;;;5088840;28;20271;-58
2021/01/04 01:24:51;;;;;;;1.73;0.30;;;3.10;99.90;;;;;;5096219;28;20198;-59
2021/01/04 01:27:51;;;;;;;1.73;0.27;;;3.00;99.90;;;;;;5102435;28;20183;-58
2021/01/04 01:30:38;;;;;;;1.90;0.75;;;3.10;99.90;;;;;;5053961;28;20246;-59
2021/01/04 01:33:39;;;;;;;1.70;0.20;;;3.00;99.90;;;;;;5092265;28;20748;-58
2021/01/04 01:36:12;;;;;;;1.70;0.20;;;3.00;99.90;;;;;;5098360;28;20184;-58
2021/01/04 01:39:13;;;;;;;1.73;0.20;;;3.00;99.90;;;;;;5095196;28;20668;-58
2021/01/04 01:41:54;;;;;;;1.73;0.20;;;3.00;99.90;;;;;;5094053;28;20279;-58
2021/01/04 01:44:25;;;;;;;23.05;21.20;;;3.20;99.90;;;;;;5087603;28;20217;-58
2021/01/04 01:46:58;;;;;;;1.70;0.20;;;3.10;99.90;;;;;;5094969;28;20176;-58
2021/01/04 01:49:34;;;;;;;1.75;0.30;;;3.10;99.90;;;;;;5102449;28;20178;-59
2021/01/04 01:52:06;;;;;;;1.70;0.20;;;3.10;99.90;;;;;;5085978;28;20272;-58
2021/01/04 01:54:43;;;;;;;1.77;0.20;;;3.20;99.90;;;;;;5099562;28;20184;-58
2021/01/04 01:57:32;;;;;;;2.00;1.15;;;3.20;99.90;;;;;;5091151;28;20251;-58
2021/01/04 02:00:18;;;;;;;2.65;2.45;;;3.20;99.90;;;;;;5092836;28;20240;-58
2021/01/04 02:03:14;;;;;;;2.75;1.17;;;3.30;99.90;;;;;;5090091;28;20750;-59
2021/01/04 02:06:04;;;;;;;1.70;0.20;;;3.30;99.90;;;;;;5092711;28;20263;-58
2021/01/04 02:08:35;;;;;;;1.73;0.20;;;3.10;99.90;;;;;;5101840;28;20251;-58
2021/01/04 02:11:04;;;;;;;1.70;0.20;;;3.10;99.90;;;;;;5090106;28;20184;-58
2021/01/04 02:13:43;;;;;;;1.90;0.85;;;3.20;99.90;;;;;;5092574;28;20227;-59
2021/01/04 02:16:14;;;;;;;1.70;0.20;;;3.20;99.90;;;;;;5102682;28;20182;-58
2021/01/04 02:19:00;;;;;;;2.00;0.68;;;3.10;99.90;;;;;;5087890;28;20702;-58
2021/01/04 02:21:42;;;;;;;2.60;0.85;;;3.10;99.90;;;;;;5088804;28;20201;-58
2021/01/04 02:24:08;;;;;;;3.13;1.65;;;3.00;99.90;;;;;;5102189;28;20537;-61
2021/01/04 02:26:35;;;;;;;1.80;0.40;;;2.90;99.90;;;;;;5094918;28;20667;-58
2021/01/04 02:29:05;;;;;;;1.90;0.68;;;2.80;99.90;;;;;;5097328;28;20642;-58
2021/01/04 02:31:36;;;;;;;1.73;0.20;;;2.80;99.90;;;;;;5071457;28;20749;-58
2021/01/04 02:34:06;;;;;;;1.70;0.20;;;2.90;99.90;;;;;;5092088;28;20655;-58
2021/01/04 02:36:37;;;;;;;1.73;0.20;;;2.90;99.90;;;;;;5090752;28;20226;-64
2021/01/04 02:39:34;;;;;;;1.80;0.50;;;3.00;99.90;;;;;;5109374;28;20642;-60
2021/01/04 02:42:21;;;;;;;1.73;0.20;;;3.10;99.90;;;;;;5081108;28;20251;-60
2021/01/04 02:44:48;;;;;;;1.80;0.30;;;3.00;99.90;;;;;;5092090;28;20654;-61
2021/01/04 02:47:37;;;;;;;1.90;0.63;;;3.10;99.90;;;;;;5097064;28;20647;-61
2021/01/04 02:50:30;;;;;;;1.70;0.20;;;3.10;99.90;;;;;;5084289;28;20187;-61
2021/01/04 02:53:26;;;;;;;1.70;0.20;;;3.00;99.90;;;;;;5092581;28;20224;-61
2021/01/04 02:56:00;;;;;;;1.70;0.30;;;3.10;99.90;;;;;;5099085;28;20184;-58
2021/01/04 02:58:31;;;;;;;1.70;0.20;;;3.10;99.90;;;;;;5116761;28;20175;-60
2021/01/04 03:01:05;;;;;;;1.70;0.20;;;3.10;99.90;;;;;;5091655;28;20191;-61
2021/01/04 03:03:33;;;;;;;1.73;0.20;;;3.20;99.90;;;;;;5089123;28;20695;-60
2021/01/04 03:06:01;;;;;;;1.73;0.20;;;3.20;99.90;;;;;;5098059;28;20196;-61
2021/01/04 03:08:26;;;;;;;1.80;0.45;;;3.20;99.90;;;;;;5099099;28;20191;-59
2021/01/04 03:10:52;;;;;;;1.73;0.40;;;3.10;99.90;;;;;;5089404;28;20744;-60
2021/01/04 03:13:34;;;;;;;1.70;0.20;;;3.10;99.90;;;;;;5100703;28;20220;-61
2021/01/04 03:16:31;;;;;;;2.15;0.60;;;3.10;99.90;;;;;;5093289;28;20205;-60
2021/01/04 03:19:11;;;;;;;4.13;1.85;;;3.10;99.90;;;;;;5084335;28;20614;-60
2021/01/04 03:21:37;;;;;;;1.73;0.20;;;3.10;99.90;;;;;;5090748;28;20184;-60
2021/01/04 03:24:06;;;;;;;1.80;0.40;;;3.10;99.90;;;;;;5093791;28;20180;-60
2021/01/04 03:26:43;;;;;;;2.00;0.45;;;3.20;99.90;;;;;;5092514;28;20542;-60
2021/01/04 03:29:08;;;;;;;1.70;0.20;;;3.10;99.90;;;;;;5091956;28;20233;-60
2021/01/04 03:31:34;;;;;;;1.70;0.20;;;3.20;99.90;;;;;;5095500;28;20547;-60
2021/01/04 03:33:59;;;;;;;1.70;0.20;;;3.20;99.90;;;;;;5086705;28;20719;-61
2021/01/04 03:36:25;;;;;;;1.80;0.47;;;3.20;99.90;;;;;;5066797;28;20295;-60
2021/01/04 03:38:50;;;;;;;1.73;0.20;;;3.20;99.90;;;;;;5088463;28;20180;-58
2021/01/04 03:41:18;;;;;;;1.70;0.20;;;3.20;99.90;;;;;;5090903;28;20179;-58
2021/01/04 03:43:44;;;;;;;1.70;0.20;;;3.20;99.90;;;;;;5100166;28;20932;-58
2021/01/04 03:46:09;;;;;;;1.70;0.20;;;3.30;99.90;;;;;;5098174;28;20184;-61
2021/01/04 03:48:37;;;;;;;2.30;0.53;;;3.30;99.90;;;;;;5090439;28;20184;-58
2021/01/04 03:51:03;;;;;;;1.73;0.20;;;3.20;99.90;;;;;;5093360;28;20259;-60
2021/01/04 03:53:29;;;;;;;1.70;0.20;;;3.20;99.90;;;;;;5091011;28;20624;-59
2021/01/04 03:55:54;;;;;;;1.70;0.20;;;3.20;99.90;;;;;;5093034;28;20184;-58
2021/01/04 03:58:20;;;;;;;1.70;0.20;;;3.20;99.90;;;;;;5105931;28;20233;-59
2021/01/04 04:00:45;;;;;;;4.57;1.60;;;3.20;99.90;;;;;;5087849;28;20693;-58
2021/01/04 04:03:11;;;;;;;1.70;0.20;;;3.20;99.90;;;;;;5091403;28;20204;-59
2021/01/04 04:05:36;;;;;;;1.70;0.20;;;3.10;99.90;;;;;;5090116;28;20178;-60
2021/01/04 04:08:03;;;;;;;1.70;0.20;;;3.10;99.90;;;;;;5088223;28;20302;-60
2021/01/04 04:10:28;;;;;;;1.73;0.20;;;3.20;99.90;;;;;;5086029;28;20600;-60
2021/01/04 04:12:55;;;;;;;3.23;0.60;;;3.20;99.90;;;;;;5100001;28;20293;-60
2021/01/04 04:15:21;;;;;;;3.45;0.90;;;3.20;99.90;;;;;;5089826;28;20183;-59
2021/01/04 04:17:47;;;;;;;1.70;0.20;;;3.20;99.90;;;;;;5097706;28;20180;-58
2021/01/04 04:20:18;;;;;;;1.70;0.20;;;3.10;99.90;;;;;;5095421;28;20183;-60
2021/01/04 04:22:49;;;;;;;1.70;0.20;;;3.10;99.90;;;;;;5084214;28;20357;-59
2021/01/04 04:25:17;;;;;;;1.73;0.20;;;3.20;99.90;;;;;;5094894;28;20187;-60
2021/01/04 04:27:43;;;;;;;1.70;0.20;;;3.20;99.90;;;;;;5099127;28;20187;-59
2021/01/04 04:30:21;;;;;;;1.70;0.20;;;3.20;99.90;;;;;;5095252;28;20176;-59
2021/01/04 04:32:48;;;;;;;1.90;0.68;;;3.30;99.90;;;;;;5095041;28;20457;-59
2021/01/04 04:35:13;;;;;;;1.73;0.20;;;3.20;99.90;;;;;;5095117;28;20171;-59
2021/01/04 04:37:41;;;;;;;1.70;0.20;;;3.20;99.90;;;;;;5091052;28;20515;-59
2021/01/04 04:40:09;;;;;;;3.55;1.65;;;3.10;99.90;;;;;;5097886;28;20188;-58
2021/01/04 04:42:38;;;;;;;1.73;0.20;;;3.20;99.90;;;;;;5100408;28;20207;-59
2021/01/04 04:45:09;;;;;;;1.80;0.50;;;3.20;99.90;;;;;;5097279;28;20184;-59
2021/01/04 04:47:59;;;;;;;1.70;0.20;;;3.20;99.90;;;;;;5103253;28;20185;-59
2021/01/04 04:50:29;;;;;;;1.77;0.20;;;3.20;99.90;;;;;;5101641;28;20225;-59
2021/01/04 04:53:15;;;;;;;1.73;0.20;;;3.30;99.90;;;;;;5094311;28;20705;-58
2021/01/04 04:56:18;;;;;;;1.73;0.30;;;3.30;99.90;;;;;;5094571;28;20202;-59
2021/01/04 04:59:01;;;;;;;1.90;0.40;;;3.20;99.90;;;;;;5090860;28;20204;-58
2021/01/04 05:01:41;;;;;;;1.77;0.20;;;3.20;99.90;;;;;;5105587;28;20195;-59
2021/01/04 05:04:16;;;;;;;1.73;0.20;;;3.20;99.90;;;;;;5093570;28;20191;-58
2021/01/04 05:06:49;;;;;;;1.80;0.30;;;3.20;99.90;;;;;;5098906;28;20299;-59
2021/01/04 05:09:53;;;;;;;1.70;0.20;;;3.20;99.90;;;;;;5085595;28;20179;-59
2021/01/04 05:12:30;;;;;;;4.65;4.05;;;3.10;99.90;;;;;;5105769;28;20232;-60
2021/01/04 05:15:00;;;;;;;19.38;17.42;;;3.10;99.90;;;;;;5108574;28;20186;-59
2021/01/04 05:17:43;;;;;;;1.70;0.20;;;3.20;99.90;;;;;;5110058;28;20217;-59
2021/01/04 05:20:09;;;;;;;1.70;0.20;;;3.20;99.90;;;;;;5099308;28;20175;-59
2021/01/04 05:22:58;;;;;;;1.70;0.20;;;3.30;99.90;;;;;;5093368;28;20208;-61
2021/01/04 05:25:52;;;;;;;1.73;0.20;;;3.30;99.90;;;;;;5093347;28;20200;-58
2021/01/04 05:28:45;;;;;;;1.73;0.20;;;3.20;99.90;;;;;;5100017;28;20182;-60
2021/01/04 05:31:43;;;;;;;2.58;1.10;;;3.20;99.90;;;;;;5093364;28;20237;-60
2021/01/04 05:34:45;;;;;;;3.22;0.75;;;3.20;99.90;;;;;;5094866;28;20191;-60
2021/01/04 05:37:26;;;;;;;4.20;1.38;;;3.20;99.90;;;;;;5099117;28;20188;-60
2021/01/04 05:40:24;;;;;;;1.70;0.20;;;3.10;99.90;;;;;;5099934;28;20521;-60
2021/01/04 05:43:02;;;;;;;1.73;0.20;;;3.00;99.90;;;;;;5094340;28;20283;-60
2021/01/04 05:45:43;;;;;;;1.73;0.20;;;3.00;99.90;;;;;;5093293;28;20233;-59
2021/01/04 05:48:36;;;;;;;1.80;0.40;;;3.10;99.90;;;;;;5095186;28;20190;-59
2021/01/04 05:51:18;;;;;;;2.95;1.40;;;3.10;99.90;;;;;;5110340;28;20179;-59
2021/01/04 05:53:44;;;;;;;3.17;1.05;;;3.00;99.90;;;;;;5091251;28;20216;-60
2021/01/04 05:56:17;;;;;;;3.97;0.73;;;3.00;99.90;;;;;;5094534;28;20191;-59
2021/01/04 05:58:42;;;;;;;1.90;0.40;;;3.00;99.90;;;;;;5094084;28;20210;-59
2021/01/04 06:01:11;;;;;;;1.70;0.20;;;3.10;99.90;;;;;;5097218;28;20203;-59
2021/01/04 06:03:37;;;;;;;1.70;0.20;;;3.00;99.90;;;;;;5099835;28;20204;-60
2021/01/04 06:06:49;;;;;;;1.70;0.20;;;3.10;99.90;;;;;;5091275;28;20550;-60
2021/01/04 06:09:16;;;;;;;1.73;0.20;;;3.10;99.90;;;;;;5075518;28;20245;-59
2021/01/04 06:11:53;;;;;;;1.80;0.30;;;3.10;99.90;;;;;;5081039;28;20301;-60
2021/01/04 06:14:19;;;;;;;1.70;0.20;;;3.10;99.90;;;;;;5099887;28;20183;-59
2021/01/04 06:16:46;;;;;;;1.70;0.20;;;3.10;99.90;;;;;;5098920;28;20186;-59
2021/01/04 06:19:22;;;;;;;1.70;0.20;;;3.20;99.90;;;;;;5088445;28;20490;-58
2021/01/04 06:22:09;;;;;;;1.70;0.30;;;3.20;99.90;;;;;;5089648;28;20215;-59
2021/01/04 06:24:37;;;;;;;1.80;0.20;;;3.20;99.90;;;;;;5082365;28;20272;-59
2021/01/04 06:27:15;;;;;;;1.73;0.20;;;3.30;99.90;;;;;;5091262;28;20196;-59
2021/01/04 06:29:49;;;;;;;1.70;0.20;;;3.20;99.90;;;;;;5097523;28;20191;-60
2021/01/04 06:32:25;;;;;;;1.73;0.20;;;3.30;99.90;;;;;;5088952;28;20708;-59
2021/01/04 06:34:55;;;;;;;1.70;0.20;;;3.30;99.90;;;;;;5089881;28;20195;-59
2021/01/04 06:37:24;;;;;;;1.70;0.20;;;3.30;99.90;;;;;;5086419;28;20208;-59
2021/01/04 06:40:01;;;;;;;1.70;0.20;;;3.30;99.90;;;;;;5100354;28;20180;-58
2021/01/04 06:42:34;;;;;;;1.70;0.20;;;3.30;99.90;;;;;;5090547;28;20753;-58
2021/01/04 06:45:19;;;;;;;35.00;32.30;;;3.30;99.90;;;;;;5096151;28;20266;-58
2021/01/04 06:47:47;;;;;;;1.77;0.20;;;3.30;99.90;;;;;;5096493;28;20523;-59
2021/01/04 06:50:22;;;;;;;1.70;0.20;;;3.20;99.90;;;;;;5087387;28;20589;-60
2021/01/04 06:53:14;;;;;;;1.73;0.20;;;3.10;99.90;;;;;;5090616;28;20208;-61
2021/01/04 06:56:17;;;;;;;3.13;0.95;;;3.20;99.90;;;;;;5076065;28;20185;-60
2021/01/04 06:59:09;;;;;;;1.70;0.20;;;3.30;99.90;;;;;;5097758;28;20211;-59
2021/01/04 07:02:12;;;;;;;12.30;11.30;;;3.30;99.90;;;;;;5092139;28;20183;-59
2021/01/04 07:05:09;;;;;;;1.70;0.30;;;3.30;99.90;;;;;;5088132;28;20211;-60
2021/01/04 07:07:50;;;;;;;1.70;0.20;;;3.30;99.90;;;;;;5091513;28;20192;-60
2021/01/04 07:10:27;;;;;;;1.73;0.20;;;3.30;99.90;;;;;;5083043;28;20172;-60
2021/01/04 07:13:17;;;;;;;1.73;0.20;;;3.30;99.90;;;;;;5088391;28;20694;-60
2021/01/04 07:16:12;;;;;;;1.70;0.20;;;3.30;99.90;;;;;;5089046;28;20196;-60
2021/01/04 07:18:56;;;;;;;1.73;0.20;;;3.30;99.90;;;;;;5087848;28;20193;-60
2021/01/04 07:21:21;;;;;;;1.80;0.30;;;3.30;99.90;;;;;;5084364;28;20194;-60
2021/01/04 07:24:01;;;;;;;1.70;0.20;;;3.30;99.90;;;;;;5084912;28;20706;-60
2021/01/04 07:26:43;;;;;;;1.70;0.20;;;3.30;99.90;;;;;;5095023;28;20191;-61
2021/01/04 07:29:18;;;;;;;2.20;1.00;;;3.30;99.90;;;;;;5099402;28;20188;-61
2021/01/04 07:31:58;;;;;;;1.73;0.20;;;3.30;99.90;;;;;;5093088;28;20214;-61
2021/01/04 07:34:41;;;;;;;1.80;0.40;;;3.20;99.90;;;;;;5091534;28;20180;-58
2021/01/04 07:37:28;;;;;;;1.70;0.20;;;3.20;99.90;;;;;;5087195;28;20211;-58
2021/01/04 07:40:08;;;;;;;1.75;0.20;;;3.20;99.90;;;;;;5090406;28;20222;-60
2021/01/04 07:43:03;;;;;;;1.80;0.40;;;3.20;99.90;;;;;;5093526;28;20212;-60
2021/01/04 07:45:34;;;;;;;1.70;0.20;;;3.20;99.90;;;;;;5073102;28;20192;-63
2021/01/04 07:48:37;;;;;;;1.70;0.20;;;3.20;99.90;;;;;;5101657;28;20639;-60
2021/01/04 07:51:27;;;;;;;1.70;0.20;;;3.30;99.90;;;;;;5092316;28;20201;-59
2021/01/04 07:54:28;;;;;;;1.80;0.30;;;3.40;99.90;;;;;;5088051;28;20200;-60
2021/01/04 07:57:09;;;;;;;1.73;0.20;;;3.30;99.90;;;;;;5044275;28;20211;-59
2021/01/04 07:59:46;;;;;;;5.13;2.78;;;3.30;99.90;;;;;;5093192;28;20184;-60
2021/01/04 08:02:43;;;;;;;1.70;0.20;;;3.40;99.90;;;;;;5086984;28;20211;-59
2021/01/04 08:05:58;;;;;;;1.80;0.20;;;3.30;99.90;;;;;;5091451;28;20645;-60
2021/01/04 08:08:30;;;;;;;1.73;0.20;;;3.40;99.90;;;;;;4998347;28;20195;-59
2021/01/04 08:11:30;;;;;;;1.70;0.20;;;3.50;99.90;;;;;;4998251;28;20187;-60
2021/01/04 08:14:14;;;;;;;1.77;0.28;;;3.50;99.90;;;;;;5082975;28;20242;-60
2021/01/04 08:16:52;;;;;;;1.80;0.40;;;3.50;99.90;;;;;;5100621;28;20206;-61
2021/01/04 08:19:19;;;;;;;1.90;0.60;;;3.40;99.90;;;;;;5110005;28;20175;-60
2021/01/04 08:22:00;;;;;;;1.80;0.32;;;3.40;99.90;;;;;;5122132;28;20199;-59
2021/01/04 08:24:45;;;;;;;2.63;1.33;;;3.40;99.90;;;;;;5110942;28;20254;-60
2021/01/04 08:27:22;;;;;;;1.70;0.20;;;3.40;99.90;;;;;;5110884;28;20194;-59
2021/01/04 08:29:56;;;;;;;1.70;0.20;;;3.40;99.90;;;;;;5115177;28;20204;-59
2021/01/04 08:32:29;;;;;;;1.70;0.20;;;3.30;99.90;;;;;;5116118;28;20199;-65
2021/01/04 08:35:05;;;;;;;1.70;0.20;;;3.40;99.90;;;;;;5105961;28;20271;-65
2021/01/04 08:37:38;;;;;;;1.73;0.20;;;3.40;99.90;;;;;;5118317;28;20211;-58
2021/01/04 08:40:23;;;;;;;4.82;4.53;;;3.40;99.90;;;;;;5114169;28;20175;-60
2021/01/04 08:43:01;;;;;;;1.75;0.20;;;3.40;99.90;;;;;;5111041;28;20354;-59
2021/01/04 08:45:37;;;;;;;6.88;6.32;;;3.40;99.90;;;;;;5106988;28;20196;-60
2021/01/04 08:48:34;;;;;;;1.77;0.20;;;3.40;99.90;;;;;;5122289;28;20199;-59
2021/01/04 08:51:02;;;;;;;1.70;0.20;;;3.30;99.90;;;;;;5100383;28;20187;-60
2021/01/04 08:53:27;;;;;;;1.70;0.20;;;3.40;99.90;;;;;;5094988;28;20232;-59
2021/01/04 08:56:06;;;;;;;1.70;0.20;;;3.40;99.90;;;;;;5104166;28;20257;-58
2021/01/04 08:58:40;;;;;;;1.70;0.20;;;3.50;99.90;;;;;;5105206;28;20648;-59
2021/01/04 09:01:26;;;;;;;2.30;1.05;;;3.50;99.90;;;;;;5099767;28;20191;-59
2021/01/04 09:04:07;;;;;;;1.70;0.20;;;3.50;99.90;;;;;;5103511;28;20183;-59
2021/01/04 09:06:42;;;;;;;2.47;1.60;;;3.60;99.90;;;;;;5103211;28;20209;-59
2021/01/04 09:09:30;;;;;;;1.80;0.20;;;3.60;99.90;;;;;;5085412;28;20210;-59
2021/01/04 09:12:24;;;;;;;1.70;0.20;;;3.50;99.90;;;;;;5095703;28;20231;-59
2021/01/04 09:14:58;;;;;;;4.28;3.97;;;3.50;99.90;;;;;;5092693;28;20212;-60
2021/01/04 09:17:38;;;;;;;2.90;2.28;;;3.50;99.90;;;;;;5087837;28;20192;-59
2021/01/04 09:20:07;;;;;;;1.75;0.30;;;3.50;99.90;;;;;;5091283;28;20259;-60
2021/01/04 09:22:33;;;;;;;2.90;1.95;;;3.40;99.90;;;;;;5093401;28;20212;-59
2021/01/04 09:24:58;;;;;;;1.70;0.20;;;3.40;99.90;;;;;;5092212;28;20262;-59
2021/01/04 09:27:30;;;;;;;1.70;0.20;;;3.50;99.90;;;;;;5093307;28;20205;-60
2021/01/04 09:30:00;;;;;;;1.70;0.20;;;3.40;99.90;;;;;;5099910;28;20608;-60
2021/01/04 09:32:37;;;;;;;4.47;1.58;;;3.50;99.90;;;;;;5098009;28;20520;-60
2021/01/04 09:35:06;;;;;;;3.25;2.60;;;3.60;99.90;;;;;;5096318;28;20569;-64
2021/01/04 09:37:38;;;;;;;3.42;3.15;;;3.60;99.90;;;;;;5103882;28;20181;-60
2021/01/04 09:40:08;;;;;;;2.20;0.50;;;3.50;99.90;;;;;;5093911;28;20184;-59
2021/01/04 09:42:34;;;;;;;2.45;1.02;;;3.50;99.90;;;;;;5092353;28;20215;-59
2021/01/04 09:45:16;;;;;;;1.70;0.20;;;3.60;99.90;;;;;;5098224;28;20176;-59
2021/01/04 09:47:49;;;;;;;1.80;0.40;;;3.50;99.90;;;;;;5075509;28;20688;-59
2021/01/04 09:50:41;;;;;;;1.80;0.20;;;3.40;99.90;;;;;;5087761;28;20195;-60
2021/01/04 09:53:18;;;;;;;1.70;0.20;;;3.50;99.90;;;;;;5117544;28;20211;-59
2021/01/04 09:55:44;;;;;;;5.72;0.93;;;3.50;99.90;;;;;;5105903;28;20668;-60
2021/01/04 09:58:11;;;;;;;1.70;0.20;;;3.50;99.90;;;;;;5074819;28;20187;-59
2021/01/04 10:00:39;;;;;;;1.70;0.20;;;3.50;99.90;;;;;;5098138;28;20182;-59
2021/01/04 10:03:11;;;;;;;1.70;0.20;;;3.40;99.90;;;;;;5093659;28;20227;-60
2021/01/04 10:05:43;;;;;;;4.40;4.10;;;3.40;99.90;;;;;;5091130;28;20551;-60
2021/01/04 10:08:21;;;;;;;2.33;1.23;;;3.50;99.90;;;;;;5092670;28;20697;-60
2021/01/04 10:10:55;;;;;;;5.50;2.13;;;3.40;99.90;;;;;;5100127;28;20185;-60
2021/01/04 10:13:22;;;;;;;1.70;0.30;;;3.50;99.90;;;;;;5087066;28;20207;-61
2021/01/04 10:15:50;;;;;;;1.85;0.70;;;3.50;99.90;;;;;;5094876;28;20189;-60
2021/01/04 10:18:43;;;;;;;1.70;0.20;;;3.50;99.90;;;;;;5092974;28;20179;-60
2021/01/04 10:21:17;;;;;;;1.70;0.20;;;3.40;99.90;;;;;;5092279;28;20180;-61
2021/01/04 10:23:50;;;;;;;1.70;0.30;;;3.50;99.90;;;;;;5089228;28;20239;-60
2021/01/04 10:26:16;;;;;;;2.53;0.57;;;3.50;99.90;;;;;;5097507;28;20207;-61
2021/01/04 10:28:42;;;;;;;1.80;0.30;;;3.50;99.90;;;;;;5088736;28;20318;-61
2021/01/04 10:31:13;;;;;;;1.70;0.20;;;3.60;99.90;;;;;;5097132;28;20203;-60
2021/01/04 10:33:39;;;;;;;5.57;2.15;;;3.60;99.90;;;;;;5097974;28;20210;-61
2021/01/04 10:36:13;;;;;;;1.70;0.20;;;3.60;99.90;;;;;;5087806;28;20188;-61
2021/01/04 10:38:44;;;;;;;1.70;0.20;;;3.60;99.90;;;;;;5090900;28;20480;-60
2021/01/04 10:41:18;;;;;;;1.80;0.52;;;3.70;99.90;;;;;;5087230;28;20712;-61
2021/01/04 10:43:47;;;;;;;1.70;0.20;;;3.70;99.90;;;;;;5090779;28;20234;-60
2021/01/04 10:46:36;;;;;;;2.03;0.40;;;3.60;99.90;;;;;;5080383;28;20230;-61
2021/01/04 10:49:06;;;;;;;8.85;5.57;;;3.70;99.90;;;;;;5085112;28;20192;-60
2021/01/04 10:51:34;;;;;;;7.22;2.05;;;3.60;99.90;;;;;;5088066;28;20180;-61
2021/01/04 10:54:10;;;;;;;1.80;0.43;;;3.70;99.90;;;;;;5090739;28;20805;-61
2021/01/04 10:56:42;;;;;;;7.10;4.32;;;3.60;99.90;;;;;;5091718;28;20184;-59
2021/01/04 10:59:34;;;;;;;2.25;0.63;;;3.60;99.90;;;;;;5091984;28;20209;-60
2021/01/04 11:01:59;;;;;;;1.73;0.20;;;3.60;99.90;;;;;;5073704;28;20216;-59
2021/01/04 11:04:26;;;;;;;4.00;2.20;;;3.60;99.90;;;;;;5096983;28;20535;-59
2021/01/04 11:07:30;;;;;;;5.68;2.88;;;3.60;99.90;;;;;;5097102;28;20665;-60
2021/01/04 11:09:56;;;;;;;1.70;0.20;;;3.50;99.90;;;;;;4986673;28;20274;-60
2021/01/04 11:12:26;;;;;;;2.73;0.93;;;3.60;99.90;;;;;;5053635;28;20635;-59
2021/01/04 11:15:00;;;;;;;1.75;0.20;;;3.60;99.90;;;;;;5098033;28;20176;-59
2021/01/04 11:17:30;;;;;;;2.97;2.65;;;3.60;99.90;;;;;;5088724;28;20182;-59
2021/01/04 11:20:11;;;;;;;7.10;3.15;;;3.60;99.90;;;;;;5085915;28;20184;-60
2021/01/04 11:22:37;;;;;;;11.50;6.75;;;3.60;99.90;;;;;;5075066;28;20210;-59
2021/01/04 11:25:03;;;;;;;10.83;4.57;;;3.60;99.90;;;;;;5082889;28;20275;-62
2021/01/04 11:27:29;;;;;;;7.40;4.57;;;3.60;99.90;;;;;;5109488;28;20184;-58
2021/01/04 11:29:55;;;;;;;6.07;3.60;;;3.60;99.90;;;;;;5115577;28;20258;-60
2021/01/04 11:32:22;;;;;;;2.43;1.03;;;3.60;99.90;;;;;;5087387;28;20513;-60
2021/01/04 11:34:50;;;;;;;1.70;0.20;;;3.60;99.90;;;;;;5098113;28;20182;-60
2021/01/04 11:37:19;;;;;;;3.70;2.05;;;3.70;99.90;;;;;;5092422;28;20217;-60
2021/01/04 11:39:44;;;;;;;1.73;0.20;;;3.70;99.90;;;;;;5082628;28;20181;-60
2021/01/04 11:42:11;;;;;;;5.53;2.93;;;3.80;99.90;;;;;;5090432;28;20199;-60
2021/01/04 11:44:37;;;;;;;2.53;0.52;;;3.80;99.90;;;;;;5080146;28;20181;-60
2021/01/04 11:47:04;;;;;;;65.50;58.72;;;3.70;99.90;;;;;;5089178;28;20213;-60
2021/01/04 11:49:29;;;;;;;5.93;2.47;;;3.80;99.90;;;;;;5101092;28;20307;-60
2021/01/04 11:51:55;;;;;;;1.70;0.20;;;3.80;99.90;;;;;;5089831;28;20243;-60
2021/01/04 11:54:21;;;;;;;1.70;0.20;;;3.90;99.90;;;;;;5097830;28;20568;-60
2021/01/04 11:56:48;;;;;;;1.70;0.20;;;3.90;99.90;;;;;;5096704;28;20467;-63
2021/01/04 11:59:14;;;;;;;1.70;0.20;;;3.80;99.90;;;;;;5092832;28;20534;-61
2021/01/04 12:01:39;;;;;;;1.70;0.20;;;3.80;99.90;;;;;;5085055;28;20191;-61
2021/01/04 12:04:07;;;;;;;1.70;0.20;;;3.80;99.90;;;;;;5101491;28;20172;-60
2021/01/04 12:06:32;;;;;;;1.70;0.20;;;3.80;99.90;;;;;;5089000;28;20184;-60
2021/01/04 12:08:58;;;;;;;1.80;0.47;;;3.80;99.90;;;;;;5097390;28;20184;-61
2021/01/04 12:11:24;;;;;;;3.33;1.90;;;3.80;99.90;;;;;;5101177;28;20179;-60
2021/01/04 12:13:51;;;;;;;9.17;5.50;;;3.80;99.90;;;;;;5096662;28;20433;-60
2021/01/04 12:16:17;;;;;;;1.70;0.20;;;3.80;99.90;;;;;;5088694;28;20438;-60
2021/01/04 12:18:43;;;;;;;5.18;1.00;;;3.80;99.90;;;;;;5095618;28;20689;-60
2021/01/04 12:21:09;;;;;;;3.92;0.70;;;3.80;99.90;;;;;;5087929;28;20179;-60
2021/01/04 12:23:34;;;;;;;6.43;2.77;;;3.80;99.90;;;;;;5089571;28;20218;-61
2021/01/04 12:26:00;;;;;;;1.70;0.20;;;3.80;99.90;;;;;;5092000;28;20180;-60
2021/01/04 12:28:25;;;;;;;2.53;1.57;;;3.80;99.90;;;;;;5087859;28;20283;-59
2021/01/04 12:30:51;;;;;;;1.87;0.50;;;3.80;99.90;;;;;;5094307;28;20202;-61
2021/01/04 12:33:16;;;;;;;3.10;0.63;;;3.80;99.90;;;;;;5093873;28;20210;-60
2021/01/04 12:35:42;;;;;;;1.90;0.60;;;3.90;99.90;;;;;;5090975;28;20208;-60
2021/01/04 12:38:08;;;;;;;6.90;4.43;;;3.90;99.90;;;;;;5085481;28;20176;-59
2021/01/04 12:40:34;;;;;;;3.67;2.53;;;3.90;99.90;;;;;;5091601;28;20208;-61
2021/01/04 12:43:03;;;;;;;7.28;3.15;;;3.90;99.90;;;;;;5092602;28;20646;-59
2021/01/04 12:45:30;;;;;;;1.70;0.20;;;3.90;99.90;;;;;;5102862;28;20554;-60
2021/01/04 12:47:56;;;;;;;2.00;0.88;;;3.80;99.90;;;;;;5089282;28;20176;-61
2021/01/04 12:50:23;;;;;;;3.17;2.15;;;3.80;99.90;;;;;;5093669;28;20667;-59
2021/01/04 12:52:49;;;;;;;1.70;0.20;;;3.90;99.90;;;;;;5098498;28;20207;-59
2021/01/04 12:55:17;;;;;;;1.70;0.20;;;3.90;99.90;;;;;;5073715;28;20642;-60
2021/01/04 12:57:47;;;;;;;1.75;0.20;;;3.90;99.90;;;;;;5096220;28;20184;-60
2021/01/04 13:00:14;;;;;;;5.43;2.95;;;4.00;99.90;;;;;;5092988;28;20206;-60
2021/01/04 13:02:39;;;;;;;3.78;1.42;;;4.00;99.90;;;;;;5085366;28;20236;-60
2021/01/04 13:05:05;;;;;;;1.70;0.20;;;4.00;99.90;;;;;;5067417;28;20198;-60
2021/01/04 13:07:31;;;;;;;2.63;1.20;;;4.00;99.90;;;;;;5099457;28;20262;-60
2021/01/04 13:09:56;;;;;;;4.73;2.57;;;4.00;99.90;;;;;;5089427;28;20441;-61
2021/01/04 13:12:22;;;;;;;1.70;0.20;;;3.90;99.90;;;;;;5105213;28;20261;-61
2021/01/04 13:14:49;;;;;;;1.70;0.20;;;3.80;99.90;;;;;;5099115;28;20211;-61
2021/01/04 13:17:15;;;;;;;3.35;1.75;;;3.90;99.90;;;;;;5094641;28;20175;-63
2021/01/04 13:19:40;;;;;;;1.70;0.20;;;3.80;99.90;;;;;;5091127;28;20202;-61
2021/01/04 13:22:06;;;;;;;13.87;6.23;;;3.90;99.90;;;;;;5102016;28;20359;-61
2021/01/04 13:24:32;;;;;;;1.70;0.20;;;4.00;99.90;;;;;;5092244;28;20248;-59
2021/01/04 13:26:59;;;;;;;7.93;2.80;;;3.90;99.90;;;;;;5072151;28;20468;-60
2021/01/04 13:29:28;;;;;;;1.70;0.20;;;4.00;99.90;;;;;;5060496;28;20186;-61
2021/01/04 13:32:03;;;;;;;7.25;4.45;;;4.00;99.90;;;;;;5094257;28;20208;-61
2021/01/04 13:34:29;;;;;;;1.70;0.20;;;4.00;99.90;;;;;;5092800;28;20631;-61
2021/01/04 13:36:56;;;;;;;2.40;0.97;;;4.00;99.90;;;;;;5092900;28;20184;-62
2021/01/04 13:39:22;;;;;;;2.55;0.82;;;4.00;99.90;;;;;;5093545;28;20690;-61
2021/01/04 13:41:55;;;;;;;1.70;0.20;;;4.00;99.90;;;;;;5101273;28;20219;-61